Time;durP1;ratioP1;P1;durP2;ratioP2;P2;SDS_P1;SDS_P2;PMS_P1;PMS_P2;Temp;Humidity;BMP_temperature;BMP_pressure;BME280_temperature;BME280_humidity;BME280_pressure;Samples;Min_cycle;Max_cycle;Signal;HPM_P1;HPM_P2
2021/04/17 00:04:06;;;;;;;2.28;1.00;;;17.60;54.60;;;;;;10496344;28;20035;-57
2021/04/17 00:09:16;;;;;;;1.90;0.73;;;17.60;54.60;;;;;;10478213;28;20063;-57
2021/04/17 00:14:26;;;;;;;2.22;0.80;;;17.60;54.60;;;;;;10495946;28;20060;-57
2021/04/17 00:19:27;;;;;;;1.75;0.60;;;17.60;54.60;;;;;;10479221;28;20469;-57
2021/04/17 00:24:27;;;;;;;1.83;0.60;;;17.60;54.50;;;;;;10495754;28;20036;-57
2021/04/17 00:29:29;;;;;;;2.30;1.30;;;17.60;54.50;;;;;;10477810;28;20029;-57
2021/04/17 00:34:30;;;;;;;1.60;0.77;;;17.60;60.70;;;;;;10499833;28;20051;-57
2021/04/17 00:39:31;;;;;;;1.27;0.68;;;17.60;60.00;;;;;;10502704;28;20048;-57
2021/04/17 00:44:33;;;;;;;2.25;0.70;;;17.60;59.10;;;;;;10502610;28;20043;-57
2021/04/17 00:49:34;;;;;;;2.67;0.70;;;17.70;59.20;;;;;;10502356;28;20032;-57
2021/04/17 00:54:35;;;;;;;1.40;0.80;;;17.60;58.30;;;;;;10502069;28;20035;-57
2021/04/17 00:59:36;;;;;;;2.15;0.73;;;17.60;58.50;;;;;;10484767;28;20035;-57
2021/04/17 01:04:43;;;;;;;1.48;0.70;;;17.70;58.90;;;;;;10501767;28;20028;-57
2021/04/17 01:09:49;;;;;;;1.58;0.60;;;17.60;58.60;;;;;;10483293;28;20548;-55
2021/04/17 01:14:52;;;;;;;1.67;0.65;;;17.60;58.90;;;;;;10493047;28;20040;-57
2021/04/17 01:20:21;;;;;;;0.90;0.60;;;17.60;58.40;;;;;;10501022;28;20032;-57
2021/04/17 01:25:24;;;;;;;1.43;0.70;;;17.60;58.20;;;;;;10501208;28;20040;-57
2021/04/17 01:30:25;;;;;;;1.60;0.73;;;17.60;58.50;;;;;;10478208;28;20847;-57
2021/04/17 01:35:26;;;;;;;2.58;1.02;;;17.60;58.80;;;;;;10500644;28;20043;-57
2021/04/17 01:40:29;;;;;;;1.42;0.60;;;17.60;58.20;;;;;;10481600;28;20056;-57
2021/04/17 01:45:32;;;;;;;0.82;0.43;;;17.60;58.10;;;;;;10482271;28;20063;-57
2021/04/17 01:50:34;;;;;;;1.10;0.60;;;17.60;58.10;;;;;;10482631;28;20106;-57
2021/04/17 01:55:37;;;;;;;1.75;0.63;;;17.60;57.80;;;;;;10499913;28;20029;-57
2021/04/17 02:00:38;;;;;;;0.88;0.50;;;17.60;57.70;;;;;;10481806;28;20024;-57
2021/04/17 02:05:38;;;;;;;1.80;0.70;;;17.60;57.60;;;;;;10499555;28;20041;-57
2021/04/17 02:10:39;;;;;;;1.55;0.65;;;17.60;57.50;;;;;;10499071;28;20047;-57
2021/04/17 02:15:42;;;;;;;1.35;0.68;;;17.60;57.40;;;;;;10499105;28;20048;-57
2021/04/17 02:20:50;;;;;;;1.45;0.45;;;17.60;57.40;;;;;;10498703;28;20032;-57
2021/04/17 02:25:51;;;;;;;1.63;0.68;;;17.60;57.40;;;;;;10498829;28;20119;-56
2021/04/17 02:30:52;;;;;;;0.63;0.50;;;17.60;57.20;;;;;;10480503;28;20032;-57
2021/04/17 02:35:53;;;;;;;1.80;0.70;;;17.60;57.10;;;;;;10497806;28;20033;-56
2021/04/17 02:40:54;;;;;;;1.08;0.50;;;17.60;57.10;;;;;;10497742;28;20090;-56
2021/04/17 02:45:55;;;;;;;0.70;0.55;;;17.60;57.00;;;;;;10479784;28;20480;-56
2021/04/17 02:50:55;;;;;;;1.17;0.65;;;17.60;57.00;;;;;;10497765;28;20082;-57
2021/04/17 02:55:56;;;;;;;1.52;0.70;;;17.60;56.90;;;;;;10497363;28;20043;-56
2021/04/17 03:00:57;;;;;;;1.65;0.82;;;17.60;56.80;;;;;;10479504;28;20492;-57
2021/04/17 03:05:58;;;;;;;0.80;0.50;;;17.60;56.70;;;;;;10497409;28;20033;-57
2021/04/17 03:10:59;;;;;;;1.75;0.60;;;17.60;56.60;;;;;;10497337;28;20036;-57
2021/04/17 03:16:00;;;;;;;3.38;0.60;;;17.60;56.50;;;;;;10497126;28;20039;-56
2021/04/17 03:21:00;;;;;;;2.28;0.82;;;17.60;57.20;;;;;;10472840;28;20112;-56
2021/04/17 03:26:01;;;;;;;0.93;0.50;;;17.60;56.40;;;;;;10497036;28;20135;-57
2021/04/17 03:31:02;;;;;;;2.95;0.85;;;17.60;56.40;;;;;;10497079;28;20397;-57
2021/04/17 03:36:05;;;;;;;1.02;0.57;;;17.60;56.40;;;;;;10496557;28;20029;-57
2021/04/17 03:41:06;;;;;;;1.63;0.50;;;17.60;56.50;;;;;;10496347;28;20032;-57
2021/04/17 03:46:06;;;;;;;1.13;0.65;;;17.60;56.20;;;;;;10478505;28;20025;-57
2021/04/17 03:51:07;;;;;;;0.60;0.40;;;17.60;56.10;;;;;;10496655;28;20024;-57
2021/04/17 03:56:08;;;;;;;2.00;0.60;;;17.60;56.10;;;;;;10488283;28;20068;-56
2021/04/17 04:01:09;;;;;;;1.05;0.55;;;17.60;56.10;;;;;;10485505;28;20039;-56
2021/04/17 04:06:10;;;;;;;1.23;0.70;;;17.60;56.00;;;;;;10489092;28;20039;-56
2021/04/17 04:11:10;;;;;;;2.55;0.77;;;17.60;55.90;;;;;;10496729;28;20033;-56
2021/04/17 04:16:11;;;;;;;1.45;0.60;;;17.60;55.90;;;;;;10493865;28;20389;-56
2021/04/17 04:21:12;;;;;;;1.95;0.70;;;17.60;55.80;;;;;;10497139;28;20032;-57
2021/04/17 04:26:12;;;;;;;0.77;0.40;;;17.60;55.80;;;;;;10496276;28;20474;-55
2021/04/17 04:31:13;;;;;;;1.10;0.60;;;17.60;55.70;;;;;;10494843;28;20442;-57
2021/04/17 04:36:14;;;;;;;0.55;0.40;;;17.60;55.70;;;;;;10495303;28;20369;-56
2021/04/17 04:41:14;;;;;;;0.50;0.40;;;17.60;55.70;;;;;;10496083;28;20094;-57
2021/04/17 04:46:15;;;;;;;1.13;0.65;;;17.60;55.70;;;;;;10498837;28;20115;-57
2021/04/17 04:51:16;;;;;;;0.45;0.30;;;17.60;55.70;;;;;;10502405;28;20047;-57
2021/04/17 04:56:17;;;;;;;0.75;0.50;;;17.60;55.70;;;;;;10501925;28;20496;-57
2021/04/17 05:01:17;;;;;;;0.50;0.30;;;17.60;55.70;;;;;;10502186;28;20025;-57
2021/04/17 05:06:18;;;;;;;1.05;0.60;;;17.60;55.70;;;;;;10501765;28;20036;-57
2021/04/17 05:11:19;;;;;;;1.05;0.40;;;17.60;55.70;;;;;;10501697;28;20036;-57
2021/04/17 05:16:20;;;;;;;0.45;0.30;;;17.60;55.70;;;;;;10483721;28;20112;-57
2021/04/17 05:21:21;;;;;;;1.25;0.55;;;17.60;55.60;;;;;;10501172;28;20113;-58
2021/04/17 05:26:22;;;;;;;1.10;0.57;;;17.60;55.60;;;;;;10501027;28;20032;-57
2021/04/17 05:31:23;;;;;;;1.75;0.47;;;17.60;55.50;;;;;;10483070;28;20564;-57
2021/04/17 05:36:23;;;;;;;4.70;0.60;;;17.60;55.60;;;;;;10500122;28;20093;-57
2021/04/17 05:41:28;;;;;;;3.35;0.80;;;17.60;56.60;;;;;;10500638;28;20093;-57
2021/04/17 05:46:28;;;;;;;4.80;1.00;;;17.60;56.70;;;;;;10500207;28;20036;-56
2021/04/17 05:51:33;;;;;;;3.72;0.77;;;17.60;56.70;;;;;;10499945;28;20028;-56
2021/04/17 05:56:34;;;;;;;5.03;1.45;;;17.60;56.50;;;;;;10499768;28;20041;-56
2021/04/17 06:01:34;;;;;;;4.65;1.02;;;17.70;56.70;;;;;;10482063;28;20051;-56
2021/04/17 06:06:35;;;;;;;2.85;1.08;;;17.70;56.50;;;;;;10499318;28;20397;-56
2021/04/17 06:11:36;;;;;;;5.65;0.82;;;17.70;56.30;;;;;;10498472;28;20033;-56
2021/04/17 06:16:37;;;;;;;9.20;1.85;;;17.70;56.20;;;;;;10497650;28;20444;-55
2021/04/17 06:21:37;;;;;;;11.90;1.48;;;17.60;56.40;;;;;;10480898;28;20108;-56
2021/04/17 06:26:38;;;;;;;14.93;2.08;;;17.60;56.60;;;;;;10497581;28;20032;-56
2021/04/17 06:31:39;;;;;;;10.75;2.42;;;17.50;56.50;;;;;;10496464;28;20372;-56
2021/04/17 06:36:40;;;;;;;12.45;2.85;;;17.50;56.10;;;;;;10497352;28;20055;-57
2021/04/17 06:41:43;;;;;;;18.60;2.95;;;17.50;55.80;;;;;;10497265;28;20500;-57
2021/04/17 06:46:44;;;;;;;13.02;2.17;;;17.50;56.10;;;;;;10496655;28;20028;-57
2021/04/17 06:51:48;;;;;;;9.95;2.30;;;17.50;56.50;;;;;;10496319;28;20029;-56
2021/04/17 06:56:50;;;;;;;11.23;2.85;;;17.50;57.70;;;;;;10495840;28;20033;-57
2021/04/17 07:01:51;;;;;;;11.10;2.60;;;17.50;57.20;;;;;;10495989;28;20469;-56
2021/04/17 07:06:53;;;;;;;13.65;2.28;;;17.50;57.20;;;;;;10496236;28;20093;-56
2021/04/17 07:11:53;;;;;;;13.07;2.10;;;17.50;57.00;;;;;;10496183;28;20028;-57
2021/04/17 07:17:04;;;;;;;22.23;2.90;;;17.40;56.90;;;;;;10496072;28;20115;-57
2021/04/17 07:22:20;;;;;;;17.25;3.22;;;17.40;58.00;;;;;;10493585;28;20028;-57
2021/04/17 07:27:58;;;;;;;28.95;5.30;;;17.40;56.60;;;;;;10478476;28;20058;-58
2021/04/17 07:33:17;;;;;;;21.70;3.80;;;17.40;56.30;;;;;;10495397;28;20075;-57
2021/04/17 07:38:42;;;;;;;19.33;3.03;;;17.40;56.00;;;;;;10477080;28;20407;-58
2021/04/17 07:43:59;;;;;;;13.82;3.20;;;17.50;55.60;;;;;;10500606;28;20080;-58
2021/04/17 07:49:12;;;;;;;12.32;2.42;;;17.50;55.60;;;;;;10504894;28;20115;-58
2021/04/17 07:54:15;;;;;;;10.07;2.38;;;17.60;55.70;;;;;;10497055;28;20040;-58
2021/04/17 07:59:23;;;;;;;10.75;2.45;;;17.60;55.70;;;;;;10502003;28;20496;-58
2021/04/17 08:04:31;;;;;;;12.07;2.47;;;17.50;55.90;;;;;;10502066;28;20036;-58
2021/04/17 08:09:32;;;;;;;23.45;2.40;;;17.50;56.30;;;;;;10485326;28;20036;-58
2021/04/17 08:14:34;;;;;;;9.38;1.77;;;17.40;56.50;;;;;;10485423;28;20036;-57
2021/04/17 08:19:35;;;;;;;10.23;1.90;;;17.40;56.70;;;;;;10485376;28;20033;-58
2021/04/17 08:24:36;;;;;;;6.82;2.92;;;17.40;56.90;;;;;;10503653;28;20036;-58
2021/04/17 08:29:54;;;;;;;6.13;1.50;;;17.40;56.90;;;;;;10484959;28;20039;-58
2021/04/17 08:35:11;;;;;;;5.57;1.55;;;17.40;57.00;;;;;;10503129;28;20464;-58
2021/04/17 08:40:12;;;;;;;5.25;1.15;;;17.40;57.00;;;;;;10502729;28;20512;-58
2021/04/17 08:45:19;;;;;;;6.07;1.75;;;17.40;57.10;;;;;;10485172;28;20024;-58
2021/04/17 08:50:24;;;;;;;6.70;1.70;;;17.40;57.10;;;;;;10502590;28;20044;-58
2021/04/17 08:55:36;;;;;;;6.22;1.20;;;17.40;57.20;;;;;;10501402;28;20032;-58
2021/04/17 09:00:40;;;;;;;4.43;1.30;;;17.40;57.20;;;;;;10468374;28;20461;-59
2021/04/17 09:05:48;;;;;;;5.47;0.95;;;17.40;57.20;;;;;;10502293;28;20044;-58
2021/04/17 09:10:49;;;;;;;8.30;1.63;;;17.40;57.20;;;;;;10505720;28;20544;-58
2021/04/17 09:16:04;;;;;;;3.75;1.10;;;17.40;57.30;;;;;;10501748;28;20028;-58
2021/04/17 09:21:07;;;;;;;7.10;1.30;;;17.30;57.20;;;;;;10501301;28;20496;-58
2021/04/17 09:26:08;;;;;;;3.80;1.30;;;17.40;57.30;;;;;;10501273;28;20033;-58
2021/04/17 09:31:10;;;;;;;4.93;1.15;;;17.30;57.30;;;;;;10500010;28;20071;-58
2021/04/17 09:36:21;;;;;;;5.13;1.70;;;17.30;57.30;;;;;;10483369;28;20029;-58
2021/04/17 09:41:22;;;;;;;5.00;1.00;;;17.30;57.30;;;;;;10500579;28;20572;-58
2021/04/17 09:46:23;;;;;;;2.47;1.13;;;17.30;57.30;;;;;;10500226;28;20052;-58
2021/04/17 09:51:29;;;;;;;2.78;0.90;;;17.30;57.40;;;;;;10500222;28;20107;-58
2021/04/17 09:56:41;;;;;;;5.78;1.20;;;17.40;57.50;;;;;;10499995;28;20124;-59
2021/04/17 10:01:57;;;;;;;3.42;0.85;;;17.40;57.50;;;;;;10499586;28;20043;-57
2021/04/17 10:06:59;;;;;;;3.95;1.00;;;17.40;57.40;;;;;;10498560;28;20409;-58
2021/04/17 10:12:11;;;;;;;2.88;1.05;;;17.30;57.40;;;;;;10499513;28;20392;-58
2021/04/17 10:17:12;;;;;;;2.17;0.80;;;17.30;58.10;;;;;;10499269;28;20036;-58
2021/04/17 10:22:13;;;;;;;5.82;0.77;;;17.30;57.60;;;;;;10481297;28;20033;-58
2021/04/17 10:27:23;;;;;;;1.85;0.60;;;17.30;57.50;;;;;;10498616;28;20112;-57
2021/04/17 10:32:30;;;;;;;4.78;1.52;;;17.30;57.50;;;;;;10498663;28;20028;-58
2021/04/17 10:37:40;;;;;;;2.67;0.82;;;17.30;57.50;;;;;;10498244;28;20043;-58
2021/04/17 10:42:50;;;;;;;3.05;0.77;;;17.30;57.60;;;;;;10498235;28;20048;-58
2021/04/17 10:48:23;;;;;;;2.45;0.70;;;17.30;57.60;;;;;;10497892;28;20050;-58
2021/04/17 10:53:39;;;;;;;3.72;0.90;;;17.20;57.50;;;;;;10496704;28;20044;-58
2021/04/17 10:58:42;;;;;;;2.35;1.00;;;17.30;57.70;;;;;;10478801;28;20428;-58
2021/04/17 11:03:53;;;;;;;1.45;0.85;;;17.20;57.60;;;;;;10479851;28;20024;-58
2021/04/17 11:09:10;;;;;;;2.40;0.80;;;17.20;57.60;;;;;;10472698;28;20038;-58
2021/04/17 11:14:11;;;;;;;2.45;1.05;;;17.20;57.90;;;;;;10497256;28;20415;-58
2021/04/17 11:19:32;;;;;;;2.75;0.88;;;17.30;57.80;;;;;;10497063;28;20161;-58
2021/04/17 11:24:33;;;;;;;4.32;0.65;;;17.30;57.70;;;;;;10496789;28;20024;-58
2021/04/17 11:29:35;;;;;;;1.63;0.70;;;17.30;57.70;;;;;;10496815;28;20116;-58
2021/04/17 11:34:45;;;;;;;3.33;0.70;;;17.30;57.80;;;;;;10475113;28;20414;-58
2021/04/17 11:39:46;;;;;;;2.10;0.70;;;17.30;57.70;;;;;;10496282;28;20064;-58
2021/04/17 11:44:47;;;;;;;4.30;1.48;;;17.40;57.70;;;;;;10496688;28;20038;-58
2021/04/17 11:49:48;;;;;;;2.42;1.27;;;17.40;57.60;;;;;;10496203;28;20429;-58
2021/04/17 11:54:50;;;;;;;1.42;0.60;;;17.40;57.50;;;;;;10496181;28;20117;-59
2021/04/17 11:59:51;;;;;;;1.90;0.70;;;17.30;57.50;;;;;;10496318;28;20028;-59
2021/04/17 12:04:52;;;;;;;3.60;1.15;;;17.30;58.40;;;;;;10496531;28;20068;-58
2021/04/17 12:09:53;;;;;;;1.40;1.00;;;17.30;57.60;;;;;;10496120;28;20111;-59
2021/04/17 12:14:54;;;;;;;1.55;0.47;;;17.30;57.60;;;;;;10495824;28;20127;-59
2021/04/17 12:19:56;;;;;;;0.95;0.55;;;17.30;57.70;;;;;;10491722;28;20031;-58
2021/04/17 12:24:57;;;;;;;1.25;0.50;;;17.30;57.90;;;;;;10477700;28;20496;-58
2021/04/17 12:29:59;;;;;;;0.95;0.40;;;17.30;57.70;;;;;;10499173;28;20031;-58
2021/04/17 12:34:59;;;;;;;1.05;0.63;;;17.30;57.70;;;;;;10502428;28;20396;-58
2021/04/17 12:40:00;;;;;;;1.10;0.50;;;17.30;57.70;;;;;;10502616;28;20040;-58
2021/04/17 12:45:03;;;;;;;1.58;0.68;;;17.30;57.90;;;;;;10503026;28;20044;-58
2021/04/17 12:50:06;;;;;;;1.08;0.88;;;17.30;57.70;;;;;;10502442;28;20039;-58
2021/04/17 12:55:08;;;;;;;3.03;0.98;;;17.30;57.70;;;;;;10502291;28;20033;-58
2021/04/17 13:00:10;;;;;;;1.70;0.63;;;17.30;57.70;;;;;;10502400;28;20418;-58
2021/04/17 13:05:11;;;;;;;1.10;0.60;;;17.30;57.80;;;;;;10502180;28;20490;-58
2021/04/17 13:10:12;;;;;;;1.75;0.60;;;17.40;57.80;;;;;;10494499;28;20427;-58
2021/04/17 13:15:15;;;;;;;1.65;0.70;;;17.40;57.60;;;;;;10501640;28;20082;-59
2021/04/17 13:20:16;;;;;;;1.13;0.43;;;17.40;57.60;;;;;;10501413;28;20025;-59
2021/04/17 13:25:16;;;;;;;1.58;0.70;;;17.40;57.80;;;;;;10501436;28;20029;-58
2021/04/17 13:30:18;;;;;;;0.68;0.40;;;17.50;57.70;;;;;;10500940;28;20042;-58
2021/04/17 13:35:18;;;;;;;1.42;0.52;;;17.50;57.60;;;;;;10501061;28;20039;-58
2021/04/17 13:40:19;;;;;;;1.58;0.60;;;17.40;57.60;;;;;;10482411;28;20045;-58
2021/04/17 13:45:20;;;;;;;0.70;0.40;;;17.40;57.60;;;;;;10482439;28;20203;-58
2021/04/17 13:50:21;;;;;;;1.55;0.65;;;17.40;57.80;;;;;;10500342;28;20052;-58
2021/04/17 13:55:22;;;;;;;1.25;0.45;;;17.50;57.70;;;;;;10486752;28;20503;-58
2021/04/17 14:00:23;;;;;;;0.75;0.40;;;17.40;57.60;;;;;;10481905;28;20044;-59
2021/04/17 14:05:24;;;;;;;0.65;0.32;;;17.40;57.70;;;;;;10481833;28;20032;-58
2021/04/17 14:10:25;;;;;;;1.45;0.40;;;17.40;57.70;;;;;;10499047;28;20036;-58
2021/04/17 14:15:26;;;;;;;2.33;1.02;;;17.40;57.80;;;;;;10499472;28;20021;-59
2021/04/17 14:20:26;;;;;;;2.30;0.47;;;17.40;57.70;;;;;;10498911;28;20043;-59
2021/04/17 14:25:27;;;;;;;1.92;0.55;;;17.40;57.60;;;;;;10481065;28;20043;-58
2021/04/17 14:30:28;;;;;;;1.90;0.70;;;17.40;57.70;;;;;;10498566;28;20544;-58
2021/04/17 14:35:29;;;;;;;2.45;1.05;;;17.40;57.70;;;;;;10480640;28;20063;-59
2021/04/17 14:40:30;;;;;;;0.55;0.40;;;17.30;57.70;;;;;;10498252;28;20127;-58
2021/04/17 14:45:31;;;;;;;1.48;0.47;;;17.30;57.70;;;;;;10497894;28;20555;-58
2021/04/17 14:50:32;;;;;;;1.38;0.40;;;17.30;57.80;;;;;;10497052;28;20040;-58
2021/04/17 14:55:32;;;;;;;1.10;0.90;;;17.30;57.70;;;;;;10497826;28;20021;-58
2021/04/17 15:00:33;;;;;;;1.15;0.57;;;17.30;57.70;;;;;;10497574;28;20028;-58
2021/04/17 15:05:34;;;;;;;1.25;0.47;;;17.30;57.80;;;;;;10497208;28;20028;-58
2021/04/17 15:10:35;;;;;;;1.10;0.40;;;17.30;57.80;;;;;;10497125;28;20039;-58
2021/04/17 15:15:35;;;;;;;1.08;0.50;;;17.40;57.80;;;;;;10497451;28;20392;-58
2021/04/17 15:20:36;;;;;;;1.20;0.40;;;17.40;57.80;;;;;;10496931;28;20112;-58
2021/04/17 15:25:37;;;;;;;1.98;0.75;;;17.40;57.80;;;;;;10479135;28;20111;-58
2021/04/17 15:30:39;;;;;;;1.15;0.50;;;17.30;57.70;;;;;;10496868;28;20123;-58
2021/04/17 15:35:42;;;;;;;2.03;0.50;;;17.30;57.80;;;;;;10496039;28;20029;-60
2021/04/17 15:40:43;;;;;;;9.35;1.17;;;17.30;57.60;;;;;;10477917;28;20051;-59
2021/04/17 15:45:44;;;;;;;4.90;0.90;;;17.40;57.50;;;;;;10492843;28;20053;-55
2021/04/17 15:50:45;;;;;;;6.65;0.98;;;17.40;57.50;;;;;;10495062;28;20119;-58
2021/04/17 15:55:46;;;;;;;15.00;9.30;;;17.40;57.50;;;;;;10468538;28;20059;-58
2021/04/17 16:16:29;;;;;;;16.20;8.30;;;17.60;57.40;;;;;;10502520;28;20045;-57
2021/04/17 16:21:29;;;;;;;19.45;7.07;;;17.60;60.50;;;;;;10485039;28;20013;-59
2021/04/17 16:26:30;;;;;;;16.58;6.40;;;17.60;60.60;;;;;;10485221;28;20477;-59
2021/04/17 16:31:31;;;;;;;16.50;5.85;;;17.60;60.50;;;;;;10503194;28;20532;-59
2021/04/17 16:36:32;;;;;;;22.13;6.22;;;17.70;60.50;;;;;;10484451;28;20404;-57
2021/04/17 16:41:34;;;;;;;11.40;5.43;;;17.70;60.20;;;;;;10501930;28;20033;-58
2021/04/17 16:46:35;;;;;;;16.83;6.35;;;17.60;59.10;;;;;;10483481;28;20350;-58
2021/04/17 16:51:36;;;;;;;25.15;5.95;;;17.60;59.20;;;;;;10484918;28;20064;-58
2021/04/17 16:56:37;;;;;;;50.65;6.40;;;17.60;59.20;;;;;;10470776;28;20040;-60
2021/04/17 17:01:37;;;;;;;22.58;6.82;;;17.50;59.40;;;;;;10484553;28;20111;-58
2021/04/17 17:06:38;;;;;;;24.50;6.05;;;17.50;59.30;;;;;;10501808;28;20024;-58
2021/04/17 17:11:39;;;;;;;19.52;5.00;;;17.50;59.00;;;;;;10501877;28;20485;-58
2021/04/17 17:16:39;;;;;;;27.27;5.28;;;17.40;59.00;;;;;;10500308;28;20036;-59
2021/04/17 17:21:40;;;;;;;18.67;5.55;;;17.40;58.90;;;;;;10483571;28;20116;-59
2021/04/17 17:26:41;;;;;;;14.82;3.97;;;17.40;58.80;;;;;;10501101;28;20024;-59
2021/04/17 17:31:41;;;;;;;16.65;4.57;;;17.40;58.80;;;;;;10501202;28;20070;-60
2021/04/17 17:36:43;;;;;;;16.40;4.03;;;17.40;58.80;;;;;;10499226;28;20521;-59
2021/04/17 17:41:43;;;;;;;19.15;4.57;;;17.30;58.60;;;;;;10497423;28;20116;-59
2021/04/17 17:46:44;;;;;;;11.30;3.28;;;17.40;61.20;;;;;;10497822;28;20025;-58
2021/04/17 17:51:45;;;;;;;10.38;3.35;;;17.40;59.90;;;;;;10492001;28;20036;-56
2021/04/17 17:56:46;;;;;;;15.73;4.25;;;17.40;60.30;;;;;;10473719;28;20035;-57
2021/04/17 18:01:48;;;;;;;8.18;3.50;;;17.40;60.10;;;;;;10462134;28;20060;-57
2021/04/17 18:06:50;;;;;;;18.55;4.20;;;17.30;60.10;;;;;;10468265;28;20024;-57
2021/04/17 18:11:51;;;;;;;14.45;3.30;;;17.30;60.50;;;;;;10469700;28;20051;-58
2021/04/17 18:16:52;;;;;;;11.50;3.28;;;17.40;60.50;;;;;;10480717;28;20032;-58
2021/04/17 18:21:52;;;;;;;8.98;3.15;;;17.30;60.40;;;;;;10474221;28;20480;-58
2021/04/17 18:26:53;;;;;;;10.57;3.00;;;17.40;60.50;;;;;;10461907;28;20036;-58
2021/04/17 18:31:54;;;;;;;12.23;4.03;;;17.40;60.50;;;;;;10479506;28;20564;-58
2021/04/17 18:36:54;;;;;;;10.88;3.00;;;17.40;60.50;;;;;;10483307;28;20491;-58
2021/04/17 18:41:55;;;;;;;15.30;3.53;;;17.40;60.50;;;;;;10481539;28;20485;-58
2021/04/17 18:46:56;;;;;;;13.32;3.50;;;17.40;60.50;;;;;;10472782;28;20619;-58
2021/04/17 18:51:57;;;;;;;12.43;2.60;;;17.40;60.50;;;;;;10469068;28;20037;-56
2021/04/17 18:56:58;;;;;;;12.27;3.25;;;17.40;60.60;;;;;;10473107;28;20058;-58
2021/04/17 19:01:59;;;;;;;6.55;2.53;;;17.40;60.60;;;;;;10485255;28;20457;-58
2021/04/17 19:07:00;;;;;;;8.65;2.85;;;17.40;60.70;;;;;;10470641;28;20037;-58
2021/04/17 19:12:00;;;;;;;11.30;2.72;;;17.40;60.60;;;;;;10496953;28;20028;-58
2021/04/17 19:17:01;;;;;;;7.90;3.00;;;17.40;60.60;;;;;;10492408;28;20029;-58
2021/04/17 19:22:02;;;;;;;4.80;2.88;;;17.40;60.70;;;;;;10496208;28;20028;-58
2021/04/17 19:27:04;;;;;;;8.18;2.22;;;17.40;60.50;;;;;;10477308;28;20041;-59
2021/04/17 19:32:05;;;;;;;6.68;2.40;;;17.40;60.20;;;;;;10494848;28;20598;-59
2021/04/17 19:37:06;;;;;;;9.23;2.83;;;17.30;59.90;;;;;;10496791;28;20036;-58
2021/04/17 19:42:09;;;;;;;7.25;2.83;;;17.30;59.80;;;;;;10509420;28;20085;-59
2021/04/17 19:47:10;;;;;;;9.75;2.97;;;17.30;59.80;;;;;;10509622;28;20062;-59
2021/04/17 19:52:11;;;;;;;5.47;2.45;;;17.30;60.00;;;;;;10510486;28;20040;-59
2021/04/17 19:57:11;;;;;;;6.28;2.80;;;17.30;59.90;;;;;;10510020;28;20032;-59
2021/04/17 20:02:12;;;;;;;8.88;3.10;;;17.30;59.60;;;;;;10510393;28;20074;-59
2021/04/17 20:07:13;;;;;;;10.52;3.47;;;17.30;59.80;;;;;;10510079;28;20086;-59
2021/04/17 20:12:14;;;;;;;8.93;2.53;;;17.40;59.70;;;;;;10509761;28;20036;-58
2021/04/17 20:17:15;;;;;;;5.03;2.72;;;17.40;59.50;;;;;;10488225;28;20115;-58
2021/04/17 20:22:16;;;;;;;6.90;2.17;;;17.40;59.30;;;;;;10492074;28;20070;-59
2021/04/17 20:27:17;;;;;;;6.20;2.40;;;17.40;59.30;;;;;;10509629;28;20054;-59
2021/04/17 20:32:18;;;;;;;7.13;2.15;;;17.40;59.20;;;;;;10509618;28;20430;-59
2021/04/17 20:37:19;;;;;;;7.30;3.03;;;17.40;59.70;;;;;;10509664;28;20036;-59
2021/04/17 20:42:20;;;;;;;5.88;2.45;;;17.50;58.90;;;;;;10509450;28;20036;-59
2021/04/17 20:47:21;;;;;;;8.60;2.28;;;17.40;58.80;;;;;;10509261;28;20072;-58
2021/04/17 20:52:22;;;;;;;4.90;2.20;;;17.50;58.70;;;;;;10502471;28;20124;-58
2021/04/17 20:57:22;;;;;;;5.95;2.00;;;17.50;58.50;;;;;;10484639;28;20028;-59
2021/04/17 21:02:23;;;;;;;6.47;2.35;;;17.50;58.50;;;;;;10502364;28;20046;-59
2021/04/17 21:07:24;;;;;;;7.55;2.67;;;17.50;58.40;;;;;;10502147;28;20086;-59
2021/04/17 21:12:24;;;;;;;6.10;2.10;;;17.50;58.40;;;;;;10501961;28;20032;-59
2021/04/17 21:17:25;;;;;;;5.10;2.22;;;17.50;58.30;;;;;;10501648;28;20520;-59
2021/04/17 21:22:26;;;;;;;6.15;1.92;;;17.50;58.20;;;;;;10501644;28;20392;-59
2021/04/17 21:27:27;;;;;;;4.93;1.67;;;17.50;58.20;;;;;;10501215;28;20036;-59
2021/04/17 21:32:28;;;;;;;3.33;1.75;;;17.50;58.20;;;;;;10501302;28;20116;-59
2021/04/17 21:37:29;;;;;;;5.78;1.58;;;17.50;58.10;;;;;;10500636;28;20503;-58
2021/04/17 21:42:32;;;;;;;3.50;1.67;;;17.50;58.00;;;;;;10500776;28;20036;-59
2021/04/17 21:47:33;;;;;;;4.45;1.83;;;17.50;57.90;;;;;;10482868;28;20483;-59
2021/04/17 21:52:34;;;;;;;4.57;1.52;;;17.60;57.90;;;;;;10500578;28;20032;-59
2021/04/17 21:57:34;;;;;;;5.85;1.83;;;17.50;57.80;;;;;;10482221;28;20665;-59
2021/04/17 22:02:35;;;;;;;6.15;1.90;;;17.50;57.80;;;;;;10499627;28;20108;-58
2021/04/17 22:07:36;;;;;;;3.85;1.52;;;17.50;57.70;;;;;;10499777;28;20102;-58
2021/04/17 22:12:36;;;;;;;5.20;1.40;;;17.50;57.70;;;;;;10499370;28;20032;-58
2021/04/17 22:17:37;;;;;;;4.05;1.95;;;17.50;57.70;;;;;;10499284;28;20075;-58
2021/04/17 22:22:38;;;;;;;3.65;1.45;;;17.50;57.60;;;;;;10498888;28;20099;-58
2021/04/17 22:27:41;;;;;;;3.35;1.60;;;17.50;57.50;;;;;;10497837;28;20465;-57
2021/04/17 22:32:41;;;;;;;3.67;1.42;;;17.60;57.50;;;;;;10480585;28;20396;-57
2021/04/17 22:37:42;;;;;;;4.05;1.50;;;17.60;57.40;;;;;;10498766;28;20029;-58
2021/04/17 22:42:43;;;;;;;3.63;1.00;;;17.60;57.40;;;;;;10498292;28;20037;-58
2021/04/17 22:47:45;;;;;;;2.35;1.20;;;17.60;57.30;;;;;;10498243;28;20063;-57
2021/04/17 22:52:47;;;;;;;3.40;1.20;;;17.60;57.20;;;;;;10498220;28;20027;-57
2021/04/17 22:57:49;;;;;;;3.50;1.40;;;17.60;57.20;;;;;;10463406;28;20115;-58
2021/04/17 23:02:50;;;;;;;3.67;1.10;;;17.60;57.10;;;;;;10497606;28;20023;-58
2021/04/17 23:07:51;;;;;;;1.52;0.88;;;17.60;57.10;;;;;;10497265;28;20032;-57
2021/04/17 23:12:52;;;;;;;3.28;1.23;;;17.60;57.10;;;;;;10496568;28;20114;-58
2021/04/17 23:17:52;;;;;;;2.67;1.48;;;17.60;57.00;;;;;;10479606;28;20032;-58
2021/04/17 23:22:53;;;;;;;2.20;0.90;;;17.60;57.00;;;;;;10497179;28;20104;-57
2021/04/17 23:27:54;;;;;;;1.85;1.10;;;17.60;56.90;;;;;;10497041;28;20097;-58
2021/04/17 23:32:54;;;;;;;3.55;1.00;;;17.60;56.90;;;;;;10497256;28;20027;-57
2021/04/17 23:37:55;;;;;;;3.67;1.30;;;17.60;56.90;;;;;;10478481;28;20033;-57
2021/04/17 23:42:56;;;;;;;2.65;1.20;;;17.60;56.70;;;;;;10496814;28;20040;-59
2021/04/17 23:47:57;;;;;;;2.75;1.40;;;17.60;56.70;;;;;;10496615;28;20037;-58
2021/04/17 23:52:58;;;;;;;2.00;0.90;;;17.60;56.70;;;;;;10496764;28;20032;-58
2021/04/17 23:57:58;;;;;;;2.28;0.93;;;17.60;56.60;;;;;;10496338;28;20123;-57
